Wetterdaten: Dezember 2011
Datum Temp Feuchte Luftdruck Regen Wind Richtung Sonnenschein UV Solar Windben
01.12.2011 6,9 C 95 % 1012,5 hPa 5,0 l/m 11,5 km/h S-SO 0,00 h 0,0 UV-I 20 W/m 19,7 km/h
02.12.2011 5,6 C 91 % 1011,0 hPa 4,8 l/m 6,0 km/h S 0,00 h 0,5 UV-I 27 W/m 19,7 km/h
03.12.2011 5,2 C 93 % 1003,3 hPa 6,2 l/m 14,2 km/h S 0,00 h 0,0 UV-I 15 W/m 27,0 km/h
04.12.2011 5,9 C 86 % 996,3 hPa 0,0 l/m 3,6 km/h S-SW 0,42 h 0,5 UV-I 60 W/m 15,6 km/h
05.12.2011 2,3 C 90 % 1001,5 hPa 7,0 l/m 9,8 km/h S-SW 0,25 h 0,5 UV-I 44 W/m 27,0 km/h
06.12.2011 1,6 C 93 % 1004,9 hPa 3,0 l/m 9,4 km/h S-SW 0,33 h 0,5 UV-I 49 W/m 23,3 km/h
07.12.2011 3,6 C 90 % 1001,8 hPa 9,2 l/m 15,6 km/h S 0,58 h 0,5 UV-I 30 W/m 34,2 km/h
08.12.2011 5,6 C 87 % 1012,0 hPa 1,0 l/m 19,3 km/h S 0,08 h 0,5 UV-I 63 W/m 32,2 km/h
09.12.2011 3,6 C 79 % 1007,1 hPa 5,2 l/m 9,6 km/h S-SW 4,42 h 0,6 UV-I 118 W/m 24,1 km/h
10.12.2011 2,3 C 88 % 1013,6 hPa 1,4 l/m 8,8 km/h S-SW 0,00 h 0,5 UV-I 37 W/m 21,7 km/h
11.12.2011 0,5 C 87 % 1013,3 hPa 0,0 l/m 5,5 km/h S 3,00 h 0,6 UV-I 87 W/m 16,9 km/h
12.12.2011 3,8 C 92 % 1007,3 hPa 7,0 l/m 10,1 km/h S 0,25 h 0,0 UV-I 22 W/m 22,6 km/h
13.12.2011 4,5 C 90 % 998,3 hPa 10,8 l/m 21,7 km/h S 0,00 h 0,0 UV-I 18 W/m 34,6 km/h
14.12.2011 4,2 C 89 % 999,8 hPa 5,8 l/m 13,0 km/h S-SW 0,67 h 0,5 UV-I 49 W/m 25,8 km/h
15.12.2011 4,1 C 84 % 1001,8 hPa 0,4 l/m 20,5 km/h S 0,25 h 0,5 UV-I 47 W/m 32,2 km/h
16.12.2011 1,9 C 97 % 979,0 hPa 25,0 l/m 15,2 km/h S-SO 0,00 h 0,0 UV-I 19 W/m 33,8 km/h
17.12.2011 1,6 C 97 % 1001,6 hPa 6,0 l/m 6,1 km/h W 0,17 h 0,5 UV-I 33 W/m 19,7 km/h
18.12.2011 0,5 C 97 % 1009,1 hPa 3,2 l/m 5,6 km/h W 0,00 h 0,0 UV-I 24 W/m 20,9 km/h
19.12.2011 -1,5 C 96 % 1015,4 hPa 0,2 l/m 1,1 km/h SW 0,00 h 0,0 UV-I 7 W/m 8,8 km/h
20.12.2011 1,5 C 98 % 1008,2 hPa 15,8 l/m 5,3 km/h S-SO 0,00 h 0,0 UV-I 11 W/m 18,1 km/h
21.12.2011 2,6 C 99 % 1016,9 hPa 5,0 l/m 2,3 km/h W 0,00 h 0,0 UV-I 18 W/m 10,1 km/h
22.12.2011 6,0 C 99 % 1020,8 hPa 12,4 l/m 1,1 km/h W 0,00 h 0,0 UV-I 29 W/m 6,8 km/h
23.12.2011 6,9 C 99 % 1016,2 hPa 5,4 l/m 3,4 km/h S-SW 0,00 h 0,0 UV-I 24 W/m 16,1 km/h
24.12.2011 2,9 C 96 % 1022,8 hPa 8,2 l/m 12,5 km/h NW 0,00 h 0,0 UV-I 27 W/m 25,8 km/h
25.12.2011 6,3 C 96 % 1029,5 hPa 2,0 l/m 8,8 km/h S-SW 0,00 h 0,0 UV-I 21 W/m 22,5 km/h
26.12.2011 8,1 C 98 % 1033,9 hPa 2,8 l/m 4,8 km/h SW 0,00 h 0,0 UV-I 24 W/m 21,3 km/h
27.12.2011 6,3 C 94 % 1034,1 hPa 0,8 l/m 2,0 km/h W 0,00 h 0,0 UV-I 21 W/m 6,8 km/h
28.12.2011 4,7 C 93 % 1020,3 hPa 1,2 l/m 7,0 km/h S 4,00 h 0,6 UV-I 116 W/m 16,9 km/h
29.12.2011 3,5 C 91 % 1011,7 hPa 9,0 l/m 18,0 km/h S-SW 0,00 h 0,0 UV-I 36 W/m 36,2 km/h
30.12.2011 2,4 C 96 % 1011,3 hPa 4,2 l/m 7,0 km/h W 0,08 h 0,5 UV-I 35 W/m 24,9 km/h
31.12.2011 4,4 C 98 % 1010,8 hPa 4,4 l/m 5,0 km/h S-SO 0,00 h 0,5 UV-I 43 W/m 12,5 km/h
Min-Datum 19.12.11 09.12.11 16.12.11 29 Tage 01.12.11 - - - - 01.12.11
Min-Zeit 21:55 14:00 13:40 - 15:10 - - - - 15:10
Minimum -3,7 C 71 % 964,1 hPa - 0,0 km/h - - - - 0,0 km/h
Max-Datum 02.12.11 19.12.11 27.12.11 16.12.11 16.12.11 - 09.12.11 09.12.11 09.12.11 24.12.11
Max-Zeit 05:55 04:30 10:20 10:10 10:45 - 14:45 11:40 12:36 07:10
Maximum 10,9 C 100 % 1035,4 hPa 25,0 l/m 39,2 km/h
S-SO
- 4,33 h 0,7 UV-I 237 W/m 64,4 km/h
N-NW
Durchschnitt 3,8 C 93 % 1010,5 hPa #172,4 l/m 9,2 km/h S-SW #14:30 h 0,5 UV-I 38 W/m 21,9 km/h

Durchschnitt Minimum Temp.1,7 C
Durchschnitt Maximum Temp.5,8 C